Monitor, WA

7:46 AM PDT on August 21, 2014 (GMT -0700)
Sunnyslope | Change Station
CLOSE
Current Station
Personal Weather Station
Location: Wenatchee, WA
Elevation: 1168 ft
Nearby Weather Stations
Active Advisory: Flash Flood Watch

Elev 1168 ft 47.49 °N, 120.36 °W | Updated 7 minutes ago

Clear
Clear
63.0 °F
Feels Like 63.0 °F
N
14.5
Wind Variable Wind from NE

Today
High -- | Low -- °F
--% Chance of Precip.
Yesterday
High -- | Low -- °F
Precip. -- in
6:05 AM 8:02 PM
Waning Crescent, 14% visible
Pressure 29.91 in
Visibility 10.0 miles
Clouds Clear
Dew Point 48 °F
Humidity 57%
Rainfall 0.00 in
Snow Depth 0 in , 0 in , 0 in
UV 0 out of 12
Pollen 4.00 out of 12
Air Quality Not available.
Flu Activity Not available.
METAR KEAT 211355Z AUTO 33010KT 10SM CLR 18/08 A2993 RMK AO2 SLP126 T01830078

More Conditions Fewer Conditions

Pressure 29.91 in
Visibility 10.0 miles
Clouds Clear
Dew Point 48 °F
Humidity 57%
Rainfall 0.00 in
Snow Depth 0 in , 0 in , 0 in
UV 0 out of 12
Pollen 4.00 out of 12
Air Quality Not available.
Flu Activity Not available.
METAR KEAT 211355Z AUTO 33010KT 10SM CLR 18/08 A2993 RMK AO2 SLP126 T01830078

More Conditions Fewer Conditions

10-Day Weather Forecast

Almanac

Astronomy

Aug. 21, 2014 Rise Set
Actual Time 6:05 AM PDT 8:02 PM PDT
Civil Twilight 5:32 AM PDT 8:35 PM PDT
Nautical Twilight 4:52 AM PDT 9:16 PM PDT
Astronomical Twilight 4:06 AM PDT 10:00 PM PDT
Moon 2:33 AM PDT 5:40 PM PDT
Length of Visible Light 15h 02m
Length of Day
13h 56m
Tomorrow will be 3m 10s shorter.
Waning Crescent, 14% of the Moon is Illuminated
Today
Waning Crescent
Aug 25
New
Sep 2
First Quarter
Sep 8
Full
Sep 15
Last Quarter

Today's Extremes

State Highs State Lows

Community

WunderPhotos

Upload Photos

1,745,930 photos uploaded!

Nearby

Snow Depth

Station Depth Elevation
Blewett Pass 0 in 4270 ft
Grouse Camp 0 in 5380 ft
Trough 0 in 5300 ft
Sasse Ridge 0 in 4200 ft
Stevens Pass 0 in 4070 ft

Earthquake Activity

City Distance Mag. Time & Date
No recent earthquake activity has been reported nearby.
Minimum magnitude displayed is 2.5.

Coastal Water Temperatures

Place Temperature
No Stations Reporting

Nearby Weather Stations